Time;durP1;ratioP1;P1;durP2;ratioP2;P2;SDS_P1;SDS_P2;PMS_P1;PMS_P2;Temp;Humidity;BMP_temperature;BMP_pressure;BME280_temperature;BME280_humidity;BME280_pressure;Samples;Min_cycle;Max_cycle;Signal;HPM_P1;HPM_P2
2023/01/17 00:02:10;;;;;;;;;;;230.40;2252.80;;;;;;5036733;28;19948;-77
2023/01/17 00:10:08;;;;;;;;;;;230.40;2252.80;;;;;;5036467;28;20285;-78
2023/01/17 00:12:34;;;;;;;;;;;230.40;2252.80;;;;;;5036369;28;19905;-77
2023/01/17 00:14:59;;;;;;;;;;;230.40;2252.80;;;;;;5016823;28;19996;-77
2023/01/17 00:17:26;;;;;;;;;;;205.70;2252.80;;;;;;5037230;28;19990;-77
2023/01/17 01:35:00;;;;;;;;;;;205.50;2252.80;;;;;;5031563;28;19912;-77
2023/01/17 01:37:26;;;;;;;;;;;205.40;2252.80;;;;;;5033616;28;19905;-77
2023/01/17 01:39:51;;;;;;;;;;;205.40;2252.80;;;;;;5033795;28;19909;-77
2023/01/17 01:42:17;;;;;;;;;;;205.40;2252.80;;;;;;5033548;28;20594;-77
2023/01/17 01:44:45;;;;;;;;;;;205.40;2252.80;;;;;;5015897;28;19928;-77
2023/01/17 01:47:12;;;;;;;;;;;205.40;2252.80;;;;;;5033233;28;19905;-78
2023/01/17 01:49:38;;;;;;;;;;;205.40;2252.80;;;;;;5007384;28;19916;-77
2023/01/17 01:52:04;;;;;;;;;;;205.50;2252.80;;;;;;5015783;28;19909;-77
2023/01/17 01:54:33;;;;;;;;;;;205.50;2252.80;;;;;;5015546;28;19999;-78
2023/01/17 01:57:00;;;;;;;;;;;205.50;2252.80;;;;;;5007445;28;19917;-77
2023/01/17 01:59:26;;;;;;;;;;;205.50;2252.80;;;;;;5007246;28;19905;-76
2023/01/17 02:01:54;;;;;;;;;;;205.50;2252.80;;;;;;5014835;28;19967;-77
2023/01/17 02:04:20;;;;;;;;;;;205.50;2252.80;;;;;;5007673;28;20347;-77
2023/01/17 02:06:52;;;;;;;;;;;205.30;2252.80;;;;;;5015590;28;19912;-77
2023/01/17 02:09:18;;;;;;;;;;;205.60;2252.80;;;;;;5015939;28;19909;-77
2023/01/17 02:11:44;;;;;;;;;;;205.60;2252.80;;;;;;5015597;28;19912;-77
2023/01/17 02:14:14;;;;;;;;;;;205.70;2252.80;;;;;;5017494;28;19905;-77
2023/01/17 02:16:58;;;;;;;;;;;205.70;2252.80;;;;;;5019558;28;19909;-77
2023/01/17 02:19:26;;;;;;;;;;;205.70;2252.80;;;;;;5034738;28;19913;-77
2023/01/17 02:22:10;;;;;;;;;;;205.70;2252.80;;;;;;5036959;28;19959;-77
2023/01/17 02:24:54;;;;;;;;;;;205.70;2252.80;;;;;;5017948;28;19909;-77
2023/01/17 02:27:24;;;;;;;;;;;205.70;2252.80;;;;;;5011248;28;19905;-76
2023/01/17 02:29:53;;;;;;;;;;;205.70;2252.80;;;;;;5011318;28;19910;-77
2023/01/17 02:32:28;;;;;;;;;;;205.70;2252.80;;;;;;5036731;28;19909;-77
2023/01/17 02:35:17;;;;;;;;;;;205.70;2252.80;;;;;;5019311;28;19951;-76
2023/01/17 02:37:55;;;;;;;;;;;205.70;2252.80;;;;;;5020134;28;19905;-76
2023/01/17 02:40:30;;;;;;;;;;;205.70;2252.80;;;;;;5011226;28;20344;-77
2023/01/17 02:42:58;;;;;;;;;;;205.70;2252.80;;;;;;5012943;28;19952;-77
2023/01/17 02:45:24;;;;;;;;;;;205.70;2252.80;;;;;;5019121;28;19905;-77
2023/01/17 02:47:49;;;;;;;;;;;205.70;2252.80;;;;;;5018414;28;19964;-77
2023/01/17 02:50:28;;;;;;;;;;;205.70;2252.80;;;;;;5019171;28;19909;-76
2023/01/17 02:53:00;;;;;;;;;;;205.70;2252.80;;;;;;5035271;28;19909;-77
2023/01/17 02:55:25;;;;;;;;;;;205.70;2252.80;;;;;;5016332;28;19912;-77
2023/01/17 02:57:54;;;;;;;;;;;205.70;2252.80;;;;;;4998297;28;20253;-77
2023/01/17 03:00:23;;;;;;;;;;;205.70;2252.80;;;;;;5016509;28;20062;-77
2023/01/17 03:02:51;;;;;;;;;;;205.70;2252.80;;;;;;5016106;28;20030;-78
2023/01/17 03:05:26;;;;;;;;;;;205.70;2252.80;;;;;;5008904;28;19905;-77
2023/01/17 03:07:52;;;;;;;;;;;205.60;2252.80;;;;;;5015769;28;19904;-77
2023/01/17 03:10:19;;;;;;;;;;;205.60;2252.80;;;;;;5012410;28;20068;-77
2023/01/17 03:12:44;;;;;;;;;;;205.60;2252.80;;;;;;5017329;28;19905;-77
2023/01/17 03:15:11;;;;;;;;;;;205.60;2252.80;;;;;;5017583;28;19905;-77
2023/01/17 03:17:39;;;;;;;;;;;205.70;1945.60;;;;;;5009330;28;19914;-77
2023/01/17 03:20:04;;;;;;;;;;;230.40;2252.80;;;;;;5006474;28;19909;-77
2023/01/17 03:22:30;;;;;;;;;;;230.40;2252.80;;;;;;5017392;28;20287;-77
2023/01/17 03:24:56;;;;;;;;;;;230.40;2252.80;;;;;;5016487;28;19912;-77
2023/01/17 03:27:21;;;;;;;;;;;205.70;2252.80;;;;;;5016923;28;19905;-77
2023/01/17 03:29:47;;;;;;;;;;;230.60;2252.80;;;;;;5017219;28;19905;-77
2023/01/17 03:32:13;;;;;;;;;;;230.60;2252.80;;;;;;5016500;28;19905;-77
2023/01/17 03:34:38;;;;;;;;;;;230.60;2252.80;;;;;;5017093;28;20377;-77
2023/01/17 03:37:04;;;;;;;;;;;230.60;2252.80;;;;;;5017044;28;20074;-77
2023/01/17 03:39:29;;;;;;;;;;;230.50;2252.80;;;;;;5016259;28;19909;-77
2023/01/17 03:41:55;;;;;;;;;;;230.40;2252.80;;;;;;5017436;28;19912;-77
2023/01/17 03:44:20;;;;;;;;;;;230.50;2252.80;;;;;;5017093;28;19962;-77
2023/01/17 03:46:46;;;;;;;;;;;230.50;2252.80;;;;;;5017075;28;19905;-77
2023/01/17 03:49:11;;;;;;;;;;;230.60;2252.80;;;;;;5035063;28;20275;-78
2023/01/17 03:51:37;;;;;;;;;;;230.60;2252.80;;;;;;5016249;28;19916;-78
2023/01/17 03:54:03;;;;;;;;;;;230.70;2252.80;;;;;;5016877;28;20371;-78
2023/01/17 03:56:28;;;;;;;;;;;230.60;2252.80;;;;;;5034431;28;19905;-78
2023/01/17 03:58:55;;;;;;;;;;;230.50;2252.80;;;;;;5015258;28;19952;-78
2023/01/17 04:01:21;;;;;;;;;;;230.40;2252.80;;;;;;5016735;28;20094;-77
2023/01/17 04:03:46;;;;;;;;;;;205.70;2252.80;;;;;;5016336;28;19987;-78
2023/01/17 04:06:12;;;;;;;;;;;205.60;2252.80;;;;;;5016782;28;19912;-78
2023/01/17 04:08:38;;;;;;;;;;;205.50;2252.80;;;;;;5016676;28;19905;-77
2023/01/17 04:11:03;;;;;;;;;;;205.40;2252.80;;;;;;5034287;28;19912;-78
2023/01/17 04:13:29;;;;;;;;;;;205.40;1945.60;;;;;;5016061;28;19909;-78
2023/01/17 04:15:54;;;;;;;;;;;205.60;2252.80;;;;;;5015685;28;19905;-77
2023/01/17 04:18:21;;;;;;;;;;;205.60;2252.80;;;;;;5016358;28;19911;-77
2023/01/17 04:20:47;;;;;;;;;;;205.60;2252.80;;;;;;5015953;28;19909;-77
2023/01/17 04:23:12;;;;;;;;;;;205.60;2252.80;;;;;;5034028;28;19917;-78
2023/01/17 04:25:38;;;;;;;;;;;205.60;2252.80;;;;;;5015798;28;19951;-77
2023/01/17 04:28:04;;;;;;;;;;;205.60;2252.80;;;;;;5033752;28;19912;-78
2023/01/17 04:30:30;;;;;;;;;;;205.60;2252.80;;;;;;5016080;28;19909;-77
2023/01/17 04:32:55;;;;;;;;;;;205.70;2252.80;;;;;;5033933;28;19905;-77
2023/01/17 04:35:21;;;;;;;;;;;230.40;2252.80;;;;;;5033425;28;19912;-78
2023/01/17 04:37:47;;;;;;;;;;;230.50;2252.80;;;;;;5033747;28;20038;-77
2023/01/17 04:40:12;;;;;;;;;;;230.60;2252.80;;;;;;5007693;28;19912;-78
2023/01/17 04:42:38;;;;;;;;;;;230.60;2252.80;;;;;;5033679;28;20290;-77
2023/01/17 04:45:04;;;;;;;;;;;230.60;2252.80;;;;;;5033967;28;19905;-77
2023/01/17 04:47:30;;;;;;;;;;;230.70;2252.80;;;;;;5033519;28;20367;-78
2023/01/17 04:49:55;;;;;;;;;;;230.70;2252.80;;;;;;5033526;28;20286;-77
2023/01/17 04:52:21;;;;;;;;;;;230.70;2252.80;;;;;;5033571;28;19916;-77
2023/01/17 04:54:49;;;;;;;;;;;230.70;2252.80;;;;;;5033561;28;19905;-78
2023/01/17 04:57:16;;;;;;;;;;;230.70;2201.60;;;;;;5033140;28;20074;-77
2023/01/17 04:59:42;;;;;;;;;;;230.60;2227.20;;;;;;5015854;28;19992;-78
2023/01/17 05:02:07;;;;;;;;;;;230.50;2252.80;;;;;;5015365;28;20314;-78
2023/01/17 05:04:33;;;;;;;;;;;230.40;2252.80;;;;;;5032593;28;20278;-78
2023/01/17 05:06:59;;;;;;;;;;;230.40;2252.80;;;;;;5033058;28;19913;-78
2023/01/17 05:09:24;;;;;;;;;;;230.40;2252.80;;;;;;5013009;28;19905;-77
2023/01/17 05:11:50;;;;;;;;;;;230.40;2252.80;;;;;;5012753;28;19905;-76
2023/01/17 05:14:16;;;;;;;;;;;205.70;2252.80;;;;;;5013073;28;19911;-78
2023/01/17 05:16:41;;;;;;;;;;;205.60;2252.80;;;;;;5015867;28;19992;-77
2023/01/17 05:19:07;;;;;;;;;;;205.60;2252.80;;;;;;5015433;28;19937;-78
2023/01/17 05:21:33;;;;;;;;;;;205.50;2252.80;;;;;;5015077;28;19931;-77
2023/01/17 05:23:58;;;;;;;;;;;205.50;2252.80;;;;;;5032655;28;20377;-77
2023/01/17 05:26:24;;;;;;;;;;;205.40;2252.80;;;;;;5014607;28;19909;-77
2023/01/17 05:28:49;;;;;;;;;;;205.40;2252.80;;;;;;5014612;28;19909;-78
2023/01/17 05:31:15;;;;;;;;;;;205.40;2252.80;;;;;;5003859;28;19905;-77
2023/01/17 05:33:41;;;;;;;;;;;205.30;2252.80;;;;;;5015345;28;20331;-77
2023/01/17 05:36:07;;;;;;;;;;;205.30;2252.80;;;;;;5014989;28;19905;-77
2023/01/17 05:38:32;;;;;;;;;;;205.30;2252.80;;;;;;5011936;28;19912;-77
2023/01/17 05:40:59;;;;;;;;;;;205.30;2252.80;;;;;;5015039;28;19905;-77
2023/01/17 05:43:24;;;;;;;;;;;205.30;2252.80;;;;;;5032105;28;19913;-77
2023/01/17 05:45:50;;;;;;;;;;;205.40;2252.80;;;;;;5032688;28;20424;-77
2023/01/17 05:48:15;;;;;;;;;;;205.40;2252.80;;;;;;5014464;28;19909;-78
2023/01/17 05:50:41;;;;;;;;;;;205.40;2252.80;;;;;;5014889;28;19909;-78
2023/01/17 05:53:08;;;;;;;;;;;205.40;2252.80;;;;;;5014940;28;20417;-77
2023/01/17 05:55:34;;;;;;;;;;;205.40;2252.80;;;;;;5015029;28;19916;-77
2023/01/17 05:58:00;;;;;;;;;;;205.50;2252.80;;;;;;5014881;28;19921;-78
2023/01/17 06:00:26;;;;;;;;;;;205.50;2124.80;;;;;;5014523;28;19909;-77
2023/01/17 06:02:52;;;;;;;;;;;205.50;2252.80;;;;;;5032554;28;20380;-78
2023/01/17 06:05:20;;;;;;;;;;;205.50;2252.80;;;;;;5014165;28;19905;-77
2023/01/17 06:07:45;;;;;;;;;;;205.60;2252.80;;;;;;5009502;28;19912;-77
2023/01/17 06:10:14;;;;;;;;;;;205.60;2252.80;;;;;;5032484;28;19912;-78
2023/01/17 06:12:41;;;;;;;;;;;205.50;2252.80;;;;;;5014779;28;19909;-77
2023/01/17 06:15:07;;;;;;;;;;;205.50;2252.80;;;;;;5032426;28;19909;-78
2023/01/17 06:17:33;;;;;;;;;;;205.40;2252.80;;;;;;5011565;28;19996;-78
2023/01/17 06:19:58;;;;;;;;;;;205.40;2252.80;;;;;;5003004;28;20367;-78
2023/01/17 06:22:24;;;;;;;;;;;205.40;2252.80;;;;;;5036029;28;20004;-78
2023/01/17 06:24:50;;;;;;;;;;;205.40;2252.80;;;;;;5010766;28;20000;-78
2023/01/17 06:27:15;;;;;;;;;;;205.40;2252.80;;;;;;5015243;28;20356;-78
2023/01/17 06:29:41;;;;;;;;;;;205.40;2252.80;;;;;;5015358;28;20363;-79
2023/01/17 06:32:07;;;;;;;;;;;205.60;2252.80;;;;;;5014605;28;19905;-79
2023/01/17 06:34:32;;;;;;;;;;;205.70;2252.80;;;;;;5014994;28;20430;-78
2023/01/17 06:36:58;;;;;;;;;;;230.40;2252.80;;;;;;5014855;28;19912;-78
2023/01/17 06:39:23;;;;;;;;;;;230.40;2252.80;;;;;;5032682;28;19905;-79
2023/01/17 06:41:49;;;;;;;;;;;205.70;2252.80;;;;;;5015170;28;19912;-77
2023/01/17 06:44:15;;;;;;;;;;;230.40;2252.80;;;;;;5014864;28;20271;-77
2023/01/17 06:46:40;;;;;;;;;;;205.70;2252.80;;;;;;5014590;28;19905;-76
2023/01/17 06:49:06;;;;;;;;;;;205.70;2252.80;;;;;;5034165;28;19951;-75
2023/01/17 06:51:31;;;;;;;;;;;205.70;2252.80;;;;;;5035235;28;19970;-77
2023/01/17 06:53:57;;;;;;;;;;;205.70;2252.80;;;;;;5034644;28;19948;-78
2023/01/17 06:56:22;;;;;;;;;;;205.70;2252.80;;;;;;5016141;28;19912;-77
2023/01/17 06:58:49;;;;;;;;;;;205.60;2252.80;;;;;;5041589;28;20362;-78
2023/01/17 07:01:15;;;;;;;;;;;205.60;2252.80;;;;;;5021856;28;19958;-79
2023/01/17 07:03:41;;;;;;;;;;;205.60;2252.80;;;;;;5018694;28;20011;-78
2023/01/17 07:06:08;;;;;;;;;;;205.60;2252.80;;;;;;5027162;28;19995;-78
2023/01/17 07:08:34;;;;;;;;;;;205.60;2252.80;;;;;;5038690;28;19905;-80
2023/01/17 07:11:00;;;;;;;;;;;205.60;2252.80;;;;;;5021776;28;19908;-76
2023/01/17 07:13:26;;;;;;;;;;;205.50;2252.80;;;;;;5020896;28;19959;-77
2023/01/17 07:15:51;;;;;;;;;;;205.60;2252.80;;;;;;5020293;28;19905;-79
2023/01/17 07:18:22;;;;;;;;;;;205.60;2252.80;;;;;;5018395;28;19905;-77
2023/01/17 07:20:48;;;;;;;;;;;205.70;2252.80;;;;;;5020344;28;19909;-78
2023/01/17 07:23:13;;;;;;;;;;;205.70;2252.80;;;;;;5033389;28;19921;-78
2023/01/17 07:25:39;;;;;;;;;;;205.70;2252.80;;;;;;5034457;28;19963;-77
2023/01/17 07:28:04;;;;;;;;;;;230.40;2252.80;;;;;;5024429;28;19905;-76
2023/01/17 07:30:30;;;;;;;;;;;230.40;2252.80;;;;;;5034749;28;20339;-77
2023/01/17 07:32:55;;;;;;;;;;;230.40;2252.80;;;;;;5036227;28;19909;-76
2023/01/17 07:35:22;;;;;;;;;;;230.40;2252.80;;;;;;5034193;28;19905;-80
2023/01/17 07:37:48;;;;;;;;;;;230.50;2252.80;;;;;;5035117;28;19905;-81
2023/01/17 07:40:16;;;;;;;;;;;230.50;2252.80;;;;;;5027455;28;20255;-83
2023/01/17 07:42:42;;;;;;;;;;;230.50;2252.80;;;;;;5034748;28;19913;-79
2023/01/17 07:45:08;;;;;;;;;;;230.60;2252.80;;;;;;5034682;28;19905;-80
2023/01/17 07:47:33;;;;;;;;;;;230.60;2252.80;;;;;;5015536;28;19943;-79
2023/01/17 07:50:00;;;;;;;;;;;230.60;2252.80;;;;;;5015126;28;20332;-79
2023/01/17 07:52:26;;;;;;;;;;;230.60;2252.80;;;;;;5032192;28;19916;-79
2023/01/17 07:54:52;;;;;;;;;;;230.60;2176.00;;;;;;5038386;28;19904;-79
2023/01/17 07:57:17;;;;;;;;;;;230.60;2227.20;;;;;;5042529;28;19964;-78
2023/01/17 07:59:43;;;;;;;;;;;230.60;2022.40;;;;;;5034456;28;19952;-81
2023/01/17 08:02:16;;;;;;;;;;;230.60;1945.60;;;;;;5034555;28;19913;-80
2023/01/17 08:04:41;;;;;;;;;;;230.70;2252.80;;;;;;5022838;28;20414;-80
2023/01/17 08:07:07;;;;;;;;;;;230.80;2252.80;;;;;;5018125;28;19952;-78
2023/01/17 08:09:33;;;;;;;;;;;230.80;2252.80;;;;;;5034838;28;20290;-78
2023/01/17 08:11:58;;;;;;;;;;;230.90;2252.80;;;;;;5013157;28;19908;-77
2023/01/17 08:14:24;;;;;;;;;;;230.90;2252.80;;;;;;5035110;28;19905;-76
2023/01/17 08:16:50;;;;;;;;;;;230.90;2252.80;;;;;;5034613;28;19920;-77
2023/01/17 08:19:16;;;;;;;;;;;231.00;2252.80;;;;;;5034976;28;19905;-78
2023/01/17 08:21:41;;;;;;;;;;;231.00;2252.80;;;;;;5033594;28;19909;-77
2023/01/17 08:24:13;;;;;;;;;;;231.00;2252.80;;;;;;5035342;28;19909;-77
2023/01/17 08:26:38;;;;;;;;;;;231.10;2252.80;;;;;;5033941;28;20374;-77
2023/01/17 08:29:04;;;;;;;;;;;231.10;2252.80;;;;;;5021947;28;19934;-79
2023/01/17 08:31:31;;;;;;;;;;;231.20;2252.80;;;;;;5033980;28;19909;-81
2023/01/17 08:33:56;;;;;;;;;;;231.20;2252.80;;;;;;5034358;28;20320;-78
2023/01/17 08:36:24;;;;;;;;;;;231.20;2252.80;;;;;;5033339;28;19975;-77
2023/01/17 08:38:51;;;;;;;;;;;231.20;2252.80;;;;;;5033912;28;20385;-80
2023/01/17 08:41:21;;;;;;;;;;;231.30;2252.80;;;;;;5029795;28;19905;-78
2023/01/17 08:43:47;;;;;;;;;;;231.20;2252.80;;;;;;5034040;28;19913;-80
2023/01/17 08:46:12;;;;;;;;;;;231.20;2252.80;;;;;;5031425;28;19905;-77
2023/01/17 08:48:38;;;;;;;;;;;231.30;2252.80;;;;;;5010223;28;19912;-86
2023/01/17 08:51:04;;;;;;;;;;;256.00;2252.80;;;;;;5034627;28;20007;-78
2023/01/17 08:53:29;;;;;;;;;;;256.00;2252.80;;;;;;5034567;28;20307;-76
2023/01/17 08:55:58;;;;;;;;;;;256.10;2252.80;;;;;;5029831;28;19965;-76
2023/01/17 08:58:25;;;;;;;;;;;256.20;2252.80;;;;;;5015360;28;19918;-77
2023/01/17 09:00:51;;;;;;;;;;;256.20;2252.80;;;;;;5017158;28;19955;-77
2023/01/17 09:03:16;;;;;;;;;;;256.30;2252.80;;;;;;5016946;28;20332;-79
2023/01/17 09:05:42;;;;;;;;;;;256.30;2252.80;;;;;;5016988;28;19906;-78
2023/01/17 09:08:07;;;;;;;;;;;256.40;2252.80;;;;;;5017122;28;19905;-78
2023/01/17 09:10:33;;;;;;;;;;;256.50;2252.80;;;;;;5034553;28;19905;-78
2023/01/17 09:12:58;;;;;;;;;;;256.50;2252.80;;;;;;5016704;28;19905;-78
2023/01/17 09:15:24;;;;;;;;;;;256.50;2252.80;;;;;;5015805;28;19909;-78
2023/01/17 09:17:53;;;;;;;;;;;256.50;2252.80;;;;;;5016942;28;19916;-80
2023/01/17 09:20:19;;;;;;;;;;;256.60;2252.80;;;;;;5034314;28;20279;-81
2023/01/17 09:22:44;;;;;;;;;;;256.80;2252.80;;;;;;5033488;28;19917;-80
2023/01/17 09:25:10;;;;;;;;;;;256.90;2252.80;;;;;;5015541;28;19909;-77
2023/01/17 09:27:35;;;;;;;;;;;256.90;2252.80;;;;;;5034291;28;19909;-77
2023/01/17 09:30:01;;;;;;;;;;;281.70;2278.40;;;;;;5033968;28;20351;-81
2023/01/17 09:32:27;;;;;;;;;;;281.90;2278.40;;;;;;5016384;28;20004;-78
2023/01/17 09:34:52;;;;;;;;;;;282.00;2278.40;;;;;;5033928;28;19909;-78
2023/01/17 09:37:18;;;;;;;;;;;282.20;2278.40;;;;;;5016171;28;19936;-78
2023/01/17 09:39:44;;;;;;;;;;;282.40;2278.40;;;;;;5033690;28;20035;-79
2023/01/17 09:42:28;;;;;;;;;;;282.40;2278.40;;;;;;5015782;28;19913;-77
2023/01/17 09:44:53;;;;;;;;;;;282.50;2278.40;;;;;;5003737;28;19909;-79
2023/01/17 09:47:34;;;;;;;;;;;307.30;2304.00;;;;;;5016071;28;19912;-87
2023/01/17 09:50:07;;;;;;;;;;;307.40;2304.00;;;;;;5011577;28;20359;-86
2023/01/17 09:52:32;;;;;;;;;;;307.60;2304.00;;;;;;5034315;28;19909;-81
2023/01/17 09:54:58;;;;;;;;;;;307.70;2304.00;;;;;;5016283;28;19905;-81
2023/01/17 09:57:39;;;;;;;;;;;307.80;2304.00;;;;;;5032802;28;19916;-88
2023/01/17 10:00:11;;;;;;;;;;;307.90;2304.00;;;;;;5023811;28;19905;-84
2023/01/17 10:02:40;;;;;;;;;;;308.00;2304.00;;;;;;5009632;28;19913;-80
2023/01/17 10:05:35;;;;;;;;;;;308.00;2304.00;;;;;;5005220;28;19991;-78
2023/01/17 10:08:10;;;;;;;;;;;308.10;2304.00;;;;;;4962412;28;20383;-85
2023/01/17 10:10:38;;;;;;;;;;;308.00;2304.00;;;;;;4976604;28;19916;-82
2023/01/17 10:13:23;;;;;;;;;;;308.10;2304.00;;;;;;4978473;28;19910;-87
2023/01/17 10:16:07;;;;;;;;;;;333.10;2329.60;;;;;;4958174;28;19997;-83
2023/01/17 10:18:35;;;;;;;;;;;333.20;2329.60;;;;;;4959698;28;19910;-88
2023/01/17 10:21:04;;;;;;;;;;;332.90;2329.60;;;;;;4990449;28;20025;-79
2023/01/17 10:23:56;;;;;;;;;;;308.10;2304.00;;;;;;4966295;28;20001;-79
2023/01/17 10:26:23;;;;;;;;;;;308.10;2304.00;;;;;;4946548;28;19910;-78
2023/01/17 10:28:50;;;;;;;;;;;307.70;2304.00;;;;;;4957001;28;20332;-76
2023/01/17 10:31:45;;;;;;;;;;;307.50;2304.00;;;;;;4975483;28;20378;-76
2023/01/17 10:34:14;;;;;;;;;;;307.30;2304.00;;;;;;4907174;29;19910;-78
2023/01/17 10:36:42;;;;;;;;;;;307.20;2304.00;;;;;;4905040;29;19908;-87
2023/01/17 10:39:21;;;;;;;;;;;282.50;2278.40;;;;;;4907462;29;19907;-89
2023/01/17 10:41:58;;;;;;;;;;;282.50;2278.40;;;;;;4902055;29;19915;-84
2023/01/17 10:44:26;;;;;;;;;;;282.50;2278.40;;;;;;4926970;29;19966;-81
2023/01/17 10:46:54;;;;;;;;;;;307.20;2304.00;;;;;;4959394;28;19938;-80
2023/01/17 10:49:21;;;;;;;;;;;307.20;2304.00;;;;;;4937095;29;19910;-78
2023/01/17 10:51:59;;;;;;;;;;;307.30;2304.00;;;;;;4932223;29;19911;-77
2023/01/17 10:54:35;;;;;;;;;;;307.30;2304.00;;;;;;4945900;28;19910;-79
2023/01/17 10:57:01;;;;;;;;;;;307.20;2304.00;;;;;;4940772;29;19918;-79
2023/01/17 10:59:30;;;;;;;;;;;307.50;2304.00;;;;;;4968926;28;19913;-79
2023/01/17 11:01:57;;;;;;;;;;;307.80;2304.00;;;;;;4950914;28;20439;-78
2023/01/17 11:04:29;;;;;;;;;;;307.80;2304.00;;;;;;4943040;29;19906;-79
2023/01/17 11:07:12;;;;;;;;;;;307.80;2304.00;;;;;;4933026;29;20440;-81
2023/01/17 11:09:46;;;;;;;;;;;307.80;2304.00;;;;;;4945635;28;19906;-80
2023/01/17 11:12:18;;;;;;;;;;;308.00;2304.00;;;;;;5031781;28;19905;-84
2023/01/17 11:14:58;;;;;;;;;;;332.90;2329.60;;;;;;5026335;28;19905;-82
2023/01/17 11:17:26;;;;;;;;;;;333.20;2329.60;;;;;;5040504;28;19999;-79
2023/01/17 11:19:53;;;;;;;;;;;333.30;2329.60;;;;;;5038188;28;20313;-80
2023/01/17 11:22:19;;;;;;;;;;;333.40;2329.60;;;;;;5029659;28;19928;-79
2023/01/17 11:24:54;;;;;;;;;;;358.40;2329.60;;;;;;5038422;28;19908;-81
2023/01/17 11:27:25;;;;;;;;;;;358.40;2329.60;;;;;;5035671;28;19909;-86
2023/01/17 11:30:09;;;;;;;;;;;358.50;2329.60;;;;;;5046463;28;19909;-80
2023/01/17 11:32:34;;;;;;;;;;;333.70;2329.60;;;;;;5047331;28;19905;-81
2023/01/17 11:35:03;;;;;;;;;;;333.50;2329.60;;;;;;5035341;28;20425;-80
2023/01/17 11:37:29;;;;;;;;;;;333.30;2329.60;;;;;;5034914;28;19905;-79
2023/01/17 11:40:05;;;;;;;;;;;333.00;2329.60;;;;;;5029785;28;19905;-79
2023/01/17 11:42:35;;;;;;;;;;;332.90;2329.60;;;;;;5045360;28;19913;-79
2023/01/17 11:45:19;;;;;;;;;;;308.00;2304.00;;;;;;5034468;28;19916;-82
2023/01/17 11:47:45;;;;;;;;;;;308.00;2304.00;;;;;;5034636;28;19912;-81
2023/01/17 11:50:24;;;;;;;;;;;307.90;2304.00;;;;;;5034478;28;19904;-85
2023/01/17 11:52:49;;;;;;;;;;;307.80;2304.00;;;;;;5009300;28;19971;-85
2023/01/17 11:55:15;;;;;;;;;;;307.90;2304.00;;;;;;5018474;28;19997;-84
2023/01/17 11:57:41;;;;;;;;;;;307.90;2304.00;;;;;;5018717;28;19917;-83
2023/01/17 12:00:23;;;;;;;;;;;307.90;2304.00;;;;;;5047982;28;19935;-87
2023/01/17 12:03:08;;;;;;;;;;;307.80;2304.00;;;;;;5023373;28;19916;-82
2023/01/17 12:05:46;;;;;;;;;;;307.70;2304.00;;;;;;5023248;28;19912;-87
2023/01/17 12:08:18;;;;;;;;;;;307.80;2304.00;;;;;;5038029;28;19912;-88
2023/01/17 12:10:55;;;;;;;;;;;307.80;2304.00;;;;;;5019608;28;20382;-82
2023/01/17 12:16:42;;;;;;;;;;;307.80;2304.00;;;;;;5042150;28;20003;-82
2023/01/17 12:19:20;;;;;;;;;;;307.80;2304.00;;;;;;5017916;28;20340;-79
2023/01/17 12:21:54;;;;;;;;;;;307.80;2304.00;;;;;;5034653;28;19913;-79
2023/01/17 12:24:22;;;;;;;;;;;307.80;2304.00;;;;;;5019184;28;19915;-82
2023/01/17 12:26:51;;;;;;;;;;;307.90;2304.00;;;;;;5016384;28;19905;-81
2023/01/17 12:29:32;;;;;;;;;;;308.00;2304.00;;;;;;5023189;28;19906;-79
2023/01/17 12:32:16;;;;;;;;;;;308.10;2304.00;;;;;;5015475;28;20355;-80
2023/01/17 12:35:08;;;;;;;;;;;308.00;2304.00;;;;;;5015066;28;20283;-80
2023/01/17 12:37:38;;;;;;;;;;;308.00;2304.00;;;;;;5002556;28;20347;-81
2023/01/17 12:40:14;;;;;;;;;;;308.00;2304.00;;;;;;5017609;28;19905;-81
2023/01/17 12:42:42;;;;;;;;;;;308.00;2304.00;;;;;;5032182;28;20019;-80
2023/01/17 12:45:20;;;;;;;;;;;307.90;2304.00;;;;;;5017491;28;20314;-80
2023/01/17 12:47:47;;;;;;;;;;;307.80;2304.00;;;;;;5017186;28;19905;-81
2023/01/17 12:50:19;;;;;;;;;;;307.80;2304.00;;;;;;5016741;28;19916;-79
2023/01/17 12:52:45;;;;;;;;;;;307.80;2304.00;;;;;;5017794;28;19909;-80
2023/01/17 12:55:13;;;;;;;;;;;307.80;2304.00;;;;;;5035405;28;19912;-81
2023/01/17 12:57:41;;;;;;;;;;;307.80;2304.00;;;;;;5017033;28;19916;-78
2023/01/17 13:00:21;;;;;;;;;;;307.80;2304.00;;;;;;5015803;28;20351;-78
2023/01/17 13:03:06;;;;;;;;;;;307.80;2304.00;;;;;;5008854;28;20339;-79
2023/01/17 13:05:35;;;;;;;;;;;307.80;2304.00;;;;;;5016178;28;19909;-78
2023/01/17 13:08:03;;;;;;;;;;;307.70;2304.00;;;;;;5034130;28;19979;-78
2023/01/17 13:10:32;;;;;;;;;;;307.70;2304.00;;;;;;5014351;28;19905;-78
2023/01/17 13:13:01;;;;;;;;;;;307.60;2304.00;;;;;;5035035;28;19911;-78
2023/01/17 13:15:30;;;;;;;;;;;307.60;2304.00;;;;;;5035712;28;19933;-78
2023/01/17 13:17:55;;;;;;;;;;;307.60;2304.00;;;;;;5016158;28;19932;-78
2023/01/17 13:20:35;;;;;;;;;;;307.60;2304.00;;;;;;5033769;28;19912;-77
2023/01/17 13:23:19;;;;;;;;;;;307.60;2304.00;;;;;;5030156;28;20015;-78
2023/01/17 13:25:48;;;;;;;;;;;307.60;2304.00;;;;;;5015356;28;19909;-78
2023/01/17 13:28:13;;;;;;;;;;;307.50;2304.00;;;;;;5036800;28;20004;-78
2023/01/17 13:30:45;;;;;;;;;;;307.60;2304.00;;;;;;5036051;28;20363;-79
2023/01/17 13:33:24;;;;;;;;;;;307.50;2304.00;;;;;;5017773;28;19963;-78
2023/01/17 13:35:56;;;;;;;;;;;307.60;2304.00;;;;;;5035877;28;19909;-79
2023/01/17 13:38:31;;;;;;;;;;;307.60;2304.00;;;;;;5034791;28;20263;-78
2023/01/17 13:40:57;;;;;;;;;;;307.60;2304.00;;;;;;5034501;28;21387;-77
2023/01/17 13:43:32;;;;;;;;;;;307.60;2304.00;;;;;;5016488;28;19962;-77
2023/01/17 13:46:00;;;;;;;;;;;307.60;2304.00;;;;;;5037133;28;19905;-77
2023/01/17 13:48:27;;;;;;;;;;;307.60;2304.00;;;;;;5015005;28;19905;-75
2023/01/17 13:50:56;;;;;;;;;;;307.60;2304.00;;;;;;5034356;28;19913;-77
2023/01/17 13:53:27;;;;;;;;;;;307.60;2304.00;;;;;;5038719;28;20386;-77
2023/01/17 13:55:58;;;;;;;;;;;307.60;2304.00;;;;;;5035060;28;19905;-77
2023/01/17 13:58:28;;;;;;;;;;;307.60;2304.00;;;;;;5017833;28;19917;-77
2023/01/17 14:00:54;;;;;;;;;;;307.60;2304.00;;;;;;5014959;28;19912;-77
2023/01/17 14:03:42;;;;;;;;;;;307.60;2304.00;;;;;;5025218;28;20259;-76
2023/01/17 14:06:26;;;;;;;;;;;307.70;2304.00;;;;;;5015540;28;19908;-77
2023/01/17 14:08:52;;;;;;;;;;;307.60;2304.00;;;;;;5014412;28;19909;-77
2023/01/17 14:11:17;;;;;;;;;;;307.60;2304.00;;;;;;5023512;28;19905;-77
2023/01/17 14:13:43;;;;;;;;;;;307.70;2304.00;;;;;;5022008;28;19905;-77
2023/01/17 14:16:21;;;;;;;;;;;307.70;2304.00;;;;;;5024351;28;19974;-77
2023/01/17 14:18:47;;;;;;;;;;;307.70;2304.00;;;;;;5019593;28;20379;-77
2023/01/17 14:21:26;;;;;;;;;;;307.60;2304.00;;;;;;5015708;28;19909;-77
2023/01/17 14:23:56;;;;;;;;;;;307.60;2304.00;;;;;;5027166;28;19916;-77
2023/01/17 14:26:42;;;;;;;;;;;307.60;2304.00;;;;;;5021650;28;19909;-77
2023/01/17 14:29:26;;;;;;;;;;;307.60;2304.00;;;;;;5027099;28;19928;-77
2023/01/17 14:32:02;;;;;;;;;;;307.50;2304.00;;;;;;5021169;28;19905;-79
2023/01/17 14:34:28;;;;;;;;;;;307.30;2304.00;;;;;;5017656;28;19905;-77
2023/01/17 14:37:02;;;;;;;;;;;307.40;2304.00;;;;;;5022677;28;19905;-77
2023/01/17 14:39:28;;;;;;;;;;;307.30;2304.00;;;;;;5017629;28;19917;-78
2023/01/17 14:41:54;;;;;;;;;;;307.20;2304.00;;;;;;5041261;28;19909;-78
2023/01/17 14:44:20;;;;;;;;;;;282.50;2278.40;;;;;;5040544;28;20042;-78
2023/01/17 14:46:47;;;;;;;;;;;282.50;2278.40;;;;;;5021049;28;19905;-77
2023/01/17 14:49:20;;;;;;;;;;;282.50;2278.40;;;;;;5040387;28;19904;-77
2023/01/17 14:52:01;;;;;;;;;;;282.40;2278.40;;;;;;5030450;28;20016;-77
2023/01/17 14:54:27;;;;;;;;;;;282.40;2278.40;;;;;;5036994;28;19911;-77
2023/01/17 14:57:09;;;;;;;;;;;282.30;2278.40;;;;;;5043450;28;20290;-78
2023/01/17 14:59:35;;;;;;;;;;;282.30;2278.40;;;;;;5035865;28;19905;-80
2023/01/17 15:02:03;;;;;;;;;;;282.30;2278.40;;;;;;5044626;28;19912;-78
2023/01/17 15:04:29;;;;;;;;;;;282.20;2278.40;;;;;;5049057;28;20002;-78
2023/01/17 15:06:56;;;;;;;;;;;282.30;2278.40;;;;;;5042313;28;20343;-78
2023/01/17 15:09:27;;;;;;;;;;;282.20;2278.40;;;;;;5046679;28;19925;-78
2023/01/17 15:11:53;;;;;;;;;;;282.20;2278.40;;;;;;5040641;28;19912;-78
2023/01/17 15:14:21;;;;;;;;;;;282.20;2278.40;;;;;;5035793;28;19905;-78
2023/01/17 15:16:47;;;;;;;;;;;282.30;2278.40;;;;;;5028110;28;19906;-78